createdAt,value
2023-03-01T00:00:35.305Z,74.41
2023-03-01T00:03:05.174Z,74.28
2023-03-01T00:05:35.383Z,74.32
2023-03-01T00:08:05.155Z,74.24
2023-03-01T00:10:37.640Z,74.35
2023-03-01T00:13:08.119Z,73.90
2023-03-01T00:15:42.524Z,74.03
2023-03-01T00:18:12.542Z,74.18
2023-03-01T00:20:42.555Z,73.94
2023-03-01T00:23:12.770Z,74.23
2023-03-01T00:25:48.375Z,74.26
2023-03-01T00:28:18.514Z,74.26
2023-03-01T00:30:48.322Z,74.63
2023-03-01T00:33:18.176Z,74.30
2023-03-01T00:35:48.435Z,74.55
2023-03-01T00:38:18.343Z,74.68
2023-03-01T00:40:50.719Z,74.86
2023-03-01T00:43:20.533Z,74.73
2023-03-01T00:45:50.515Z,74.74
2023-03-01T00:48:20.242Z,75.04
2023-03-01T00:50:50.061Z,74.81
2023-03-01T00:53:19.863Z,75.02
2023-03-01T00:55:52.316Z,75.15
2023-03-01T00:58:22.174Z,75.17
2023-03-01T01:00:52.410Z,75.34
2023-03-01T01:03:22.257Z,75.46
2023-03-01T01:05:52.059Z,75.48
2023-03-01T01:08:22.028Z,75.34
2023-03-01T01:10:54.384Z,75.77
2023-03-01T01:13:24.107Z,75.77
2023-03-01T01:15:54.017Z,75.86
2023-03-01T01:18:23.780Z,75.79
2023-03-01T01:20:53.548Z,75.67
2023-03-01T01:23:23.407Z,75.73
2023-03-01T01:25:55.842Z,75.85
2023-03-01T01:28:25.747Z,75.72
2023-03-01T01:30:55.612Z,75.77
2023-03-01T01:33:25.339Z,75.68
2023-03-01T01:35:55.232Z,75.77
2023-03-01T01:38:25.388Z,75.95
2023-03-01T01:41:00.444Z,76.22
2023-03-01T01:43:32.492Z,76.49
2023-03-01T01:46:05.382Z,76.81
2023-03-01T01:48:44.196Z,76.62
2023-03-01T01:51:16.826Z,76.82
2023-03-01T01:53:49.069Z,76.72
2023-03-01T01:56:23.103Z,76.80
2023-03-01T01:58:54.291Z,76.61
2023-03-01T02:01:24.458Z,76.69
2023-03-01T02:03:55.274Z,76.31
2023-03-01T02:06:31.150Z,76.28
2023-03-01T02:09:04.854Z,76.25
2023-03-01T02:11:39.005Z,76.32
2023-03-01T02:14:09.788Z,76.58
2023-03-01T02:16:39.983Z,76.48
2023-03-01T02:19:11.469Z,76.30
2023-03-01T02:21:54.697Z,77.10
2023-03-01T02:24:30.656Z,77.01
2023-03-01T02:27:04.411Z,77.04
2023-03-01T02:29:36.791Z,77.26
2023-03-01T02:32:09.158Z,76.89
2023-03-01T02:34:39.081Z,76.95
2023-03-01T02:37:16.148Z,76.90
2023-03-01T02:39:50.129Z,77.43
2023-03-01T02:42:27.374Z,77.55
2023-03-01T02:45:00.178Z,77.66
2023-03-01T02:47:30.119Z,77.44
2023-03-01T02:50:00.128Z,77.31
2023-03-01T02:52:45.302Z,78.31
2023-03-01T02:55:17.810Z,77.61
2023-03-01T02:57:51.816Z,77.88
2023-03-01T03:00:28.585Z,78.13
2023-03-01T03:02:58.852Z,77.87
2023-03-01T03:05:31.145Z,78.03
2023-03-01T03:08:03.456Z,78.22
2023-03-01T03:10:37.870Z,77.91
2023-03-01T03:13:09.683Z,78.25
2023-03-01T03:15:42.882Z,78.51
2023-03-01T03:18:14.615Z,78.22
2023-03-01T03:20:45.989Z,78.35
2023-03-01T03:23:17.078Z,78.17
2023-03-01T03:25:46.962Z,78.44
2023-03-01T03:28:17.012Z,78.44
2023-03-01T03:30:51.013Z,78.55
2023-03-01T03:33:20.897Z,78.64
2023-03-01T03:35:52.623Z,78.91
2023-03-01T03:38:24.024Z,79.00
2023-03-01T03:40:56.924Z,78.74
2023-03-01T03:43:27.630Z,78.74
2023-03-01T03:46:06.959Z,78.57
2023-03-01T03:48:38.451Z,78.73
2023-03-01T03:51:09.049Z,78.45
2023-03-01T03:53:38.800Z,78.42
2023-03-01T03:56:09.874Z,78.12
2023-03-01T03:58:39.892Z,78.08
2023-03-01T04:01:12.598Z,78.46
2023-03-01T04:03:42.864Z,78.44
2023-03-01T04:06:12.821Z,78.46
2023-03-01T04:08:43.280Z,78.47
2023-03-01T04:11:25.595Z,78.25
2023-03-01T04:13:58.041Z,78.33
2023-03-01T04:16:30.932Z,78.56
2023-03-01T04:19:01.648Z,78.55
2023-03-01T04:21:31.460Z,78.56
2023-03-01T04:24:01.458Z,78.61
2023-03-01T04:26:31.599Z,78.51
2023-03-01T04:29:04.129Z,78.60
2023-03-01T04:31:36.494Z,78.90
2023-03-01T04:34:06.296Z,78.77
2023-03-01T04:36:37.117Z,78.55
2023-03-01T04:39:13.513Z,78.56
2023-03-01T04:41:44.315Z,78.84
2023-03-01T04:44:14.182Z,78.84
2023-03-01T04:46:46.490Z,78.96
2023-03-01T04:49:17.130Z,79.17
2023-03-01T04:51:46.925Z,79.02
2023-03-01T04:54:17.665Z,78.99
2023-03-01T04:56:47.409Z,79.30
2023-03-01T04:59:17.159Z,79.35
2023-03-01T05:01:49.805Z,79.26
2023-03-01T05:04:19.928Z,79.18
2023-03-01T05:06:49.796Z,79.38
2023-03-01T05:09:19.810Z,79.34
2023-03-01T05:11:51.188Z,79.56
2023-03-01T05:14:21.146Z,79.42
2023-03-01T05:16:53.450Z,79.65
2023-03-01T05:19:24.037Z,79.62
2023-03-01T05:22:05.951Z,79.72
2023-03-01T05:24:37.657Z,79.99
2023-03-01T05:27:07.551Z,80.38
2023-03-01T05:29:37.473Z,80.08
2023-03-01T05:32:14.598Z,80.23
2023-03-01T05:34:45.207Z,80.47
2023-03-01T05:37:14.961Z,80.76
2023-03-01T05:39:44.784Z,80.24
2023-03-01T05:42:15.541Z,80.53
2023-03-01T05:44:47.633Z,80.64
2023-03-01T05:47:20.149Z,80.70
2023-03-01T05:49:51.262Z,80.54
2023-03-01T05:52:21.037Z,80.70
2023-03-01T05:54:50.890Z,80.94
2023-03-01T05:57:21.424Z,80.95
2023-03-01T05:59:51.222Z,80.95
2023-03-01T06:02:23.715Z,80.96
2023-03-01T06:04:53.735Z,80.88
2023-03-01T06:07:23.587Z,81.40
2023-03-01T06:09:53.381Z,81.02
2023-03-01T06:12:23.179Z,81.36
2023-03-01T06:14:52.985Z,81.05
2023-03-01T06:17:25.640Z,81.62
2023-03-01T06:19:55.482Z,82.01
2023-03-01T06:22:25.356Z,81.73
2023-03-01T06:24:57.281Z,81.91
2023-03-01T06:27:29.952Z,81.46
2023-03-01T06:29:59.740Z,81.68
2023-03-01T06:32:32.887Z,82.37
2023-03-01T06:35:02.641Z,83.03
2023-03-01T06:37:32.390Z,83.30
2023-03-01T06:40:05.795Z,82.37
2023-03-01T06:42:35.599Z,82.65
2023-03-01T06:45:06.048Z,82.86
2023-03-01T06:47:38.773Z,83.55
2023-03-01T06:50:09.228Z,83.01
2023-03-01T06:52:39.038Z,82.79
2023-03-01T06:55:09.971Z,83.12
2023-03-01T06:57:40.046Z,84.27
2023-03-01T07:00:11.557Z,83.50
2023-03-01T07:02:44.170Z,83.60
2023-03-01T07:05:13.989Z,83.77
2023-03-01T07:07:43.821Z,83.71
2023-03-01T07:10:15.254Z,83.95
2023-03-01T07:12:45.258Z,83.91
2023-03-01T07:15:16.273Z,84.90
2023-03-01T07:17:51.175Z,85.00
2023-03-01T07:20:23.634Z,85.18
2023-03-01T07:22:53.522Z,85.22
2023-03-01T07:25:23.253Z,84.83
2023-03-01T07:27:54.746Z,84.71
2023-03-01T07:30:27.126Z,85.73
2023-03-01T07:33:01.020Z,85.46
2023-03-01T07:35:32.121Z,85.73
2023-03-01T07:38:01.863Z,86.01
2023-03-01T07:40:32.199Z,86.48
2023-03-01T07:43:02.510Z,85.74
2023-03-01T07:45:33.095Z,85.65
2023-03-01T07:48:05.501Z,85.69
2023-03-01T07:50:35.626Z,85.78
2023-03-01T07:53:06.046Z,85.63
2023-03-01T07:55:35.868Z,85.83
2023-03-01T07:58:05.747Z,85.54
2023-03-01T08:00:35.488Z,84.93
2023-03-01T08:03:10.256Z,84.89
2023-03-01T08:05:40.131Z,83.62
2023-03-01T08:08:10.088Z,84.00
2023-03-01T08:10:40.599Z,82.52
2023-03-01T08:13:10.704Z,82.41
2023-03-01T08:15:40.579Z,82.45
2023-03-01T08:18:13.505Z,81.57
2023-03-01T08:20:43.318Z,80.25
2023-03-01T08:23:15.377Z,81.07
2023-03-01T08:25:45.390Z,79.71
2023-03-01T08:28:15.176Z,79.33
2023-03-01T08:30:44.954Z,79.02
2023-03-01T08:33:17.577Z,79.01
2023-03-01T08:35:47.544Z,79.33
2023-03-01T08:38:17.694Z,78.87
2023-03-01T08:40:48.565Z,79.31
2023-03-01T08:43:18.730Z,78.82
2023-03-01T08:45:48.551Z,78.07
2023-03-01T08:48:21.091Z,78.54
2023-03-01T08:50:50.875Z,77.16
2023-03-01T08:53:22.928Z,79.10
2023-03-01T08:55:52.848Z,79.02
2023-03-01T08:58:22.576Z,79.25
2023-03-01T09:00:52.371Z,78.30
2023-03-01T09:03:24.986Z,78.00
2023-03-01T09:05:55.065Z,78.41
2023-03-01T09:08:24.992Z,77.63
2023-03-01T09:10:55.422Z,77.63
2023-03-01T09:13:26.003Z,77.96
2023-03-01T09:15:55.771Z,78.20
2023-03-01T09:18:28.548Z,77.46
2023-03-01T09:21:08.437Z,77.54
2023-03-01T09:23:39.993Z,76.88
2023-03-01T09:26:11.545Z,76.50
2023-03-01T09:28:43.893Z,75.17
2023-03-01T09:31:14.007Z,74.98
2023-03-01T09:33:49.498Z,74.83
2023-03-01T09:36:21.815Z,75.01
2023-03-01T09:38:55.724Z,75.04
2023-03-01T09:41:51.400Z,73.13
2023-03-01T09:44:40.596Z,70.33
2023-03-01T09:47:16.528Z,72.13
2023-03-01T09:49:56.213Z,72.33
2023-03-01T09:52:33.706Z,72.73
2023-03-01T09:55:03.500Z,71.72
2023-03-01T09:57:40.723Z,69.96
2023-03-01T10:00:33.832Z,70.16
2023-03-01T10:03:13.929Z,70.46
2023-03-01T10:05:56.893Z,68.74
2023-03-01T10:08:36.989Z,66.73
2023-03-01T10:11:07.691Z,69.64
2023-03-01T10:13:47.568Z,66.39
2023-03-01T10:16:22.013Z,68.81
2023-03-01T10:18:59.697Z,68.70
2023-03-01T10:21:33.868Z,69.70
2023-03-01T10:24:14.303Z,69.06
2023-03-01T10:26:52.230Z,65.62
2023-03-01T10:29:27.919Z,64.86
2023-03-01T10:31:58.820Z,66.81
2023-03-01T10:34:34.470Z,64.93
2023-03-01T10:37:15.547Z,65.85
2023-03-01T10:40:10.232Z,60.73
2023-03-01T10:42:43.162Z,63.95
2023-03-01T10:45:30.879Z,61.37
2023-03-01T10:48:16.539Z,61.29
2023-03-01T10:50:49.154Z,60.96
2023-03-01T10:53:33.377Z,59.75
2023-03-01T10:56:05.811Z,59.33
2023-03-01T10:58:37.112Z,61.78
2023-03-01T11:01:09.222Z,60.46
2023-03-01T11:03:52.421Z,60.85
2023-03-01T11:06:27.425Z,59.97
2023-03-01T11:09:00.024Z,59.28
2023-03-01T11:11:37.652Z,58.10
2023-03-01T11:14:24.983Z,57.80
2023-03-01T11:17:04.778Z,55.45
2023-03-01T11:19:35.076Z,58.99
2023-03-01T11:22:10.042Z,59.13
2023-03-01T11:24:46.192Z,58.38
2023-03-01T11:27:22.276Z,60.16
2023-03-01T11:29:58.925Z,59.64
2023-03-01T11:32:34.093Z,61.08
2023-03-01T11:35:08.418Z,59.75
2023-03-01T11:37:42.727Z,57.27
2023-03-01T11:40:26.512Z,56.82
2023-03-01T11:43:09.475Z,57.27
2023-03-01T11:45:51.531Z,56.72
2023-03-01T11:48:50.178Z,55.54
2023-03-01T11:51:28.559Z,52.19
2023-03-01T11:54:17.502Z,55.74
2023-03-01T11:56:54.586Z,55.87
2023-03-01T12:00:09.030Z,51.13
2023-03-01T12:03:11.466Z,54.24
2023-03-01T12:06:16.993Z,54.45
2023-03-01T12:08:55.494Z,54.30
2023-03-01T12:11:41.536Z,53.76
2023-03-01T12:14:34.863Z,55.47
2023-03-01T12:17:28.192Z,55.37
2023-03-01T12:20:15.348Z,51.78
2023-03-01T12:22:56.907Z,53.30
2023-03-01T12:25:38.631Z,53.94
2023-03-01T12:28:40.399Z,51.52
2023-03-01T12:31:44.527Z,53.56
2023-03-01T12:34:38.723Z,51.47
2023-03-01T12:37:30.740Z,54.32
2023-03-01T12:40:27.793Z,51.11
2023-03-01T12:43:10.383Z,51.51
2023-03-01T12:45:54.818Z,52.55
2023-03-01T12:48:41.544Z,52.95
2023-03-01T12:51:15.604Z,54.46
2023-03-01T12:53:50.859Z,53.37
2023-03-01T12:56:24.160Z,54.33
2023-03-01T12:59:03.648Z,53.56
2023-03-01T13:01:43.365Z,52.79
2023-03-01T13:04:25.003Z,51.70
2023-03-01T13:07:05.609Z,52.10
2023-03-01T13:09:44.616Z,51.22
2023-03-01T13:12:44.418Z,51.91
2023-03-01T13:15:30.610Z,53.19
2023-03-01T13:18:02.467Z,52.23
2023-03-01T13:20:48.994Z,51.01
2023-03-01T13:23:29.960Z,50.47
2023-03-01T13:26:16.243Z,51.98
2023-03-01T13:28:57.960Z,51.05
2023-03-01T13:32:08.218Z,50.68
2023-03-01T13:35:01.119Z,49.97
2023-03-01T13:37:41.460Z,51.43
2023-03-01T13:40:41.135Z,50.34
2023-03-01T13:43:33.489Z,50.30
2023-03-01T13:46:04.842Z,49.37
2023-03-01T13:48:35.587Z,49.72
2023-03-01T13:51:07.826Z,48.91
2023-03-01T13:53:45.083Z,49.98
2023-03-01T13:56:18.652Z,50.66
2023-03-01T13:58:52.729Z,50.74
2023-03-01T14:01:28.992Z,52.13
2023-03-01T14:03:59.688Z,51.17
2023-03-01T14:06:32.455Z,50.85
2023-03-01T14:09:18.640Z,49.02
2023-03-01T14:12:10.304Z,49.53
2023-03-01T14:14:49.480Z,49.35
2023-03-01T14:17:41.927Z,51.10
2023-03-01T14:20:18.410Z,49.39
2023-03-01T14:22:50.053Z,51.25
2023-03-01T14:25:31.163Z,50.66
2023-03-01T14:28:06.244Z,49.38
2023-03-01T14:30:40.205Z,49.19
2023-03-01T14:33:23.182Z,48.33
2023-03-01T14:35:59.528Z,49.53
2023-03-01T14:38:38.637Z,49.59
2023-03-01T14:41:16.501Z,50.35
2023-03-01T14:43:50.756Z,49.25
2023-03-01T14:46:25.269Z,48.71
2023-03-01T14:48:56.954Z,49.92
2023-03-01T14:51:27.234Z,50.31
2023-03-01T14:53:57.750Z,49.71
2023-03-01T14:56:30.685Z,50.20
2023-03-01T14:59:02.702Z,49.58
2023-03-01T15:01:32.778Z,50.12
2023-03-01T15:04:03.639Z,51.29
2023-03-01T15:06:33.937Z,50.91
2023-03-01T15:09:04.097Z,50.67
2023-03-01T15:11:38.125Z,50.79
2023-03-01T15:14:32.104Z,49.93
2023-03-01T15:17:02.011Z,49.70
2023-03-01T15:19:32.645Z,49.10
2023-03-01T15:22:13.158Z,51.46
2023-03-01T15:24:43.103Z,50.38
2023-03-01T15:27:22.960Z,49.67
2023-03-01T15:29:54.549Z,50.44
2023-03-01T15:32:31.564Z,51.88
2023-03-01T15:35:01.960Z,50.83
2023-03-01T15:37:48.897Z,48.59
2023-03-01T15:40:32.746Z,49.66
2023-03-01T15:43:07.429Z,49.77
2023-03-01T15:45:39.872Z,51.04
2023-03-01T15:48:22.158Z,50.19
2023-03-01T15:50:59.235Z,50.74
2023-03-01T15:53:32.196Z,50.12
2023-03-01T15:56:01.976Z,50.11
2023-03-01T15:58:34.429Z,51.28
2023-03-01T16:01:04.620Z,50.10
2023-03-01T16:03:34.436Z,50.01
2023-03-01T16:06:04.219Z,51.05
2023-03-01T16:08:33.994Z,49.40
2023-03-01T16:11:05.928Z,50.25
2023-03-01T16:13:38.515Z,50.51
2023-03-01T16:16:09.111Z,51.00
2023-03-01T16:18:39.313Z,49.79
2023-03-01T16:21:09.408Z,50.56
2023-03-01T16:23:39.242Z,50.30
2023-03-01T16:26:09.570Z,50.84
2023-03-01T16:28:42.012Z,51.29
2023-03-01T16:31:12.090Z,51.08
2023-03-01T16:33:42.347Z,50.26
2023-03-01T16:36:14.826Z,50.94
2023-03-01T16:38:44.906Z,51.52
2023-03-01T16:41:17.026Z,51.60
2023-03-01T16:43:50.557Z,51.85
2023-03-01T16:46:22.881Z,52.55
2023-03-01T16:48:53.552Z,52.06
2023-03-01T16:51:25.047Z,52.27
2023-03-01T16:53:55.243Z,52.03
2023-03-01T16:56:25.125Z,52.45
2023-03-01T16:59:01.766Z,51.97
2023-03-01T17:01:40.627Z,52.65
2023-03-01T17:04:10.615Z,52.84
2023-03-01T17:06:40.631Z,52.71
2023-03-01T17:09:10.561Z,53.00
2023-03-01T17:11:40.435Z,52.98
2023-03-01T17:14:12.866Z,53.22
2023-03-01T17:16:42.934Z,53.08
2023-03-01T17:19:13.845Z,52.50
2023-03-01T17:21:43.669Z,53.03
2023-03-01T17:24:13.773Z,53.16
2023-03-01T17:26:44.440Z,53.65
2023-03-01T17:29:18.998Z,53.78
2023-03-01T17:31:49.425Z,54.04
2023-03-01T17:34:19.822Z,53.79
2023-03-01T17:36:50.821Z,53.89
2023-03-01T17:39:25.775Z,54.46
2023-03-01T17:41:55.915Z,54.75
2023-03-01T17:44:28.915Z,53.26
2023-03-01T17:46:58.689Z,54.45
2023-03-01T17:49:29.150Z,54.42
2023-03-01T17:51:59.537Z,54.62
2023-03-01T17:54:29.565Z,54.88
2023-03-01T17:56:59.649Z,55.40
2023-03-01T17:59:34.173Z,55.37
2023-03-01T18:02:04.034Z,55.66
2023-03-01T18:04:34.619Z,56.36
2023-03-01T18:07:04.408Z,56.15
2023-03-01T18:09:34.290Z,56.04
2023-03-01T18:12:05.022Z,56.14
2023-03-01T18:14:37.537Z,55.59
2023-03-01T18:17:12.007Z,56.24
2023-03-01T18:19:45.272Z,56.43
2023-03-01T18:22:15.309Z,56.32
2023-03-01T18:24:46.584Z,56.26
2023-03-01T18:27:16.383Z,56.81
2023-03-01T18:29:48.882Z,57.08
2023-03-01T18:32:18.821Z,56.85
2023-03-01T18:34:48.549Z,57.03
2023-03-01T18:37:21.011Z,56.86
2023-03-01T18:39:54.046Z,57.30
2023-03-01T18:42:24.541Z,57.41
2023-03-01T18:45:00.108Z,57.25
2023-03-01T18:47:30.103Z,58.00
2023-03-01T18:49:59.975Z,58.33
2023-03-01T18:52:29.910Z,58.54
2023-03-01T18:55:00.313Z,59.21
2023-03-01T18:57:30.898Z,58.82
2023-03-01T19:00:04.260Z,58.88
2023-03-01T19:02:34.218Z,58.61
2023-03-01T19:05:07.193Z,58.55
2023-03-01T19:07:37.512Z,59.08
2023-03-01T19:10:08.361Z,59.34
2023-03-01T19:12:38.579Z,59.86
2023-03-01T19:15:11.826Z,59.22
2023-03-01T19:17:41.692Z,59.09
2023-03-01T19:20:13.112Z,59.44
2023-03-01T19:22:42.949Z,59.19
2023-03-01T19:25:13.309Z,59.40
2023-03-01T19:27:43.230Z,59.47
2023-03-01T19:30:16.927Z,59.74
2023-03-01T19:32:46.844Z,59.95
2023-03-01T19:35:16.802Z,59.53
2023-03-01T19:37:46.638Z,59.82
2023-03-01T19:40:16.674Z,60.52
2023-03-01T19:42:46.492Z,60.32
2023-03-01T19:45:25.267Z,60.30
2023-03-01T19:48:01.746Z,60.30
2023-03-01T19:50:31.845Z,60.67
2023-03-01T19:53:01.779Z,60.47
2023-03-01T19:55:33.548Z,61.30
2023-03-01T19:58:03.377Z,60.73
2023-03-01T20:00:36.141Z,61.07
2023-03-01T20:03:06.475Z,61.21
2023-03-01T20:05:37.682Z,60.92
2023-03-01T20:08:09.649Z,61.36
2023-03-01T20:10:39.568Z,61.94
2023-03-01T20:13:09.395Z,61.72
2023-03-01T20:15:44.113Z,61.71
2023-03-01T20:18:15.109Z,61.65
2023-03-01T20:20:45.376Z,61.92
2023-03-01T20:23:15.176Z,61.77
2023-03-01T20:25:45.004Z,62.00
2023-03-01T20:28:15.178Z,62.27
2023-03-01T20:30:49.379Z,62.24
2023-03-01T20:33:19.138Z,62.27
2023-03-01T20:35:49.089Z,62.06
2023-03-01T20:38:19.057Z,62.68
2023-03-01T20:40:48.809Z,62.41
2023-03-01T20:43:18.794Z,62.18
2023-03-01T20:45:51.346Z,62.69
2023-03-01T20:48:21.105Z,62.67
2023-03-01T20:50:55.004Z,62.61
2023-03-01T20:53:24.831Z,62.90
2023-03-01T20:55:54.658Z,63.26
2023-03-01T20:58:24.518Z,63.08
2023-03-01T21:00:57.253Z,63.40
2023-03-01T21:03:27.486Z,63.49
2023-03-01T21:05:59.322Z,63.49
2023-03-01T21:08:29.353Z,63.52
2023-03-01T21:11:00.223Z,63.75
2023-03-01T21:13:31.018Z,64.08
2023-03-01T21:16:07.972Z,63.81
2023-03-01T21:18:38.616Z,63.82
2023-03-01T21:21:10.882Z,63.96
2023-03-01T21:23:42.572Z,64.63
2023-03-01T21:26:15.100Z,64.47
2023-03-01T21:28:47.003Z,64.32
2023-03-01T21:31:22.361Z,64.62
2023-03-01T21:33:53.764Z,64.61
2023-03-01T21:36:25.649Z,64.71
2023-03-01T21:38:56.130Z,64.64
2023-03-01T21:41:27.790Z,64.69
2023-03-01T21:44:00.948Z,65.28
2023-03-01T21:46:36.864Z,64.83
2023-03-01T21:49:07.829Z,65.01
2023-03-01T21:51:40.270Z,65.17
2023-03-01T21:54:10.951Z,65.79
2023-03-01T21:56:41.160Z,65.33
2023-03-01T21:59:16.742Z,65.36
2023-03-01T22:01:51.376Z,65.73
2023-03-01T22:04:24.855Z,65.63
2023-03-01T22:06:55.120Z,65.64
2023-03-01T22:09:28.572Z,65.40
2023-03-01T22:12:02.709Z,65.56
2023-03-01T22:14:35.152Z,65.88
2023-03-01T22:17:09.003Z,66.17
2023-03-01T22:19:38.815Z,65.70
2023-03-01T22:22:08.512Z,65.70
2023-03-01T22:24:38.342Z,65.88
2023-03-01T22:27:08.599Z,65.74
2023-03-01T22:29:39.077Z,65.73
2023-03-01T22:32:11.703Z,65.93
2023-03-01T22:34:41.656Z,65.94
2023-03-01T22:37:11.432Z,66.21
2023-03-01T22:39:41.157Z,66.50
2023-03-01T22:42:11.095Z,66.73
2023-03-01T22:44:41.975Z,67.26
2023-03-01T22:47:14.603Z,67.39
2023-03-01T22:49:44.571Z,67.47
2023-03-01T22:52:14.515Z,67.24
2023-03-01T22:54:44.599Z,67.75
2023-03-01T22:57:14.545Z,67.87
2023-03-01T22:59:44.329Z,68.77
2023-03-01T23:02:17.335Z,67.97
2023-03-01T23:04:48.553Z,68.07
2023-03-01T23:07:18.425Z,68.05
2023-03-01T23:09:50.670Z,68.62
2023-03-01T23:12:21.086Z,68.52
2023-03-01T23:14:50.845Z,68.77
2023-03-01T23:17:23.320Z,69.38
2023-03-01T23:19:53.597Z,69.38
2023-03-01T23:22:23.691Z,68.94
2023-03-01T23:24:53.547Z,69.16
2023-03-01T23:27:23.316Z,69.74
2023-03-01T23:29:55.324Z,69.55
2023-03-01T23:32:27.966Z,69.44
2023-03-01T23:34:58.042Z,69.48
2023-03-01T23:37:32.674Z,69.09
2023-03-01T23:40:06.188Z,69.05
2023-03-01T23:42:36.334Z,69.06
2023-03-01T23:45:08.058Z,68.87
2023-03-01T23:47:40.631Z,69.64
2023-03-01T23:50:11.373Z,69.31
2023-03-01T23:52:42.795Z,69.07
2023-03-01T23:55:15.535Z,68.75
2023-03-01T23:57:45.785Z,68.88
